首页
METAR-TAF:

METAR-TAF

机场 :

Thomson-McDuffie County Airport

Thomson, 喬治亞, 美国

纬度: 33-31-46N, 经度: 082-30-59W, 海拔: 152米

当前天气观测

该预报发布于26分钟前的23:35 UTC
静风
温度 5°C
湿度 75%
气压 1025 hPa
能見度: 16.1公里
天空无云

METAR: KHQU 122335Z AUTO 00000KT 10SM CLR 05/01 A3026 RMK AO2 T00460008

时间: 19:01 (00:01 UTC)


TAF: 丢失

超过4000个机场的气象观测和天气预报(METAR&TAF报告)。

可查询的气象台以黄色和红色小点在地图上表示。

将鼠标移到小点上方,可查看气象台名称。

然后点击查看天气观测和预报。

如需切换地图:点击带黑十字的绿色按钮放大地图;点击带横线的绿色按钮缩小地图;或者点击绿色箭头查看邻近地区的地图。


METAR-TAF: